createdAt,value
2023-05-17T00:00:14.340Z,6.20
2023-05-17T00:02:42.170Z,6.20
2023-05-17T00:05:11.608Z,6.20
2023-05-17T00:07:39.454Z,6.20
2023-05-17T00:10:09.585Z,6.20
2023-05-17T00:12:37.422Z,6.10
2023-05-17T00:15:06.171Z,6.10
2023-05-17T00:17:34.030Z,6.10
2023-05-17T00:20:02.041Z,6.00
2023-05-17T00:22:29.998Z,6.00
2023-05-17T00:24:57.821Z,6.00
2023-05-17T00:27:26.999Z,6.00
2023-05-17T00:29:54.981Z,6.00
2023-05-17T00:32:22.811Z,6.00
2023-05-17T00:34:51.602Z,5.90
2023-05-17T00:37:19.503Z,5.90
2023-05-17T00:39:47.358Z,5.90
2023-05-17T00:42:15.820Z,5.90
2023-05-17T00:44:45.199Z,5.90
2023-05-17T00:47:13.101Z,5.90
2023-05-17T00:49:41.339Z,5.80
2023-05-17T00:52:09.338Z,5.80
2023-05-17T00:54:37.207Z,5.80
2023-05-17T00:57:06.509Z,5.80
2023-05-17T00:59:37.408Z,5.80
2023-05-17T01:02:07.648Z,5.80
2023-05-17T01:04:36.193Z,5.80
2023-05-17T01:07:04.820Z,5.70
2023-05-17T01:09:33.457Z,5.70
2023-05-17T01:12:08.914Z,5.70
2023-05-17T01:14:48.265Z,5.60
2023-05-17T01:17:25.839Z,5.50
2023-05-17T01:20:04.312Z,5.50
2023-05-17T01:22:41.044Z,5.50
2023-05-17T01:25:28.123Z,5.40
2023-05-17T01:28:00.663Z,5.50
2023-05-17T01:30:30.774Z,5.40
2023-05-17T01:32:59.903Z,5.40
2023-05-17T01:35:28.443Z,5.40
2023-05-17T01:37:56.917Z,5.40
2023-05-17T01:40:25.295Z,5.40
2023-05-17T01:42:58.816Z,5.40
2023-05-17T01:45:32.785Z,5.30
2023-05-17T01:48:11.453Z,5.30
2023-05-17T01:50:40.750Z,5.30
2023-05-17T01:53:12.256Z,5.30
2023-05-17T01:55:46.413Z,5.20
2023-05-17T01:58:16.719Z,5.20
2023-05-17T02:00:47.460Z,5.20
2023-05-17T02:03:18.445Z,5.20
2023-05-17T02:05:46.655Z,5.20
2023-05-17T02:08:14.960Z,5.20
2023-05-17T02:10:43.253Z,5.20
2023-05-17T02:13:11.444Z,5.20
2023-05-17T02:15:40.694Z,5.20
2023-05-17T02:18:08.627Z,5.10
2023-05-17T02:20:36.727Z,5.10
2023-05-17T02:23:04.619Z,5.10
2023-05-17T02:25:32.490Z,5.10
2023-05-17T02:28:00.699Z,5.10
2023-05-17T02:30:29.024Z,5.10
2023-05-17T02:32:59.337Z,5.10
2023-05-17T02:35:27.416Z,5.10
2023-05-17T02:37:55.382Z,5.00
2023-05-17T02:40:23.453Z,5.00
2023-05-17T02:42:51.335Z,5.00
2023-05-17T02:45:19.328Z,4.90
2023-05-17T02:47:47.309Z,4.90
2023-05-17T02:50:16.558Z,4.90
2023-05-17T02:52:44.545Z,4.90
2023-05-17T02:55:12.487Z,4.90
2023-05-17T02:57:40.386Z,4.90
2023-05-17T03:00:10.447Z,4.90
2023-05-17T03:02:38.464Z,4.90
2023-05-17T03:05:08.326Z,4.90
2023-05-17T03:07:42.500Z,4.80
2023-05-17T03:10:10.967Z,4.70
2023-05-17T03:12:43.287Z,4.70
2023-05-17T03:15:12.015Z,4.70
2023-05-17T03:17:39.965Z,4.70
2023-05-17T03:20:10.475Z,4.70
2023-05-17T03:22:38.450Z,4.70
2023-05-17T03:25:08.618Z,4.60
2023-05-17T03:27:37.782Z,4.60
2023-05-17T03:30:07.581Z,4.60
2023-05-17T03:32:38.743Z,4.60
2023-05-17T03:35:08.340Z,4.60
2023-05-17T03:37:37.109Z,4.60
2023-05-17T03:40:07.715Z,4.70
2023-05-17T03:42:35.537Z,4.70
2023-05-17T03:45:05.000Z,4.70
2023-05-17T03:47:32.936Z,4.70
2023-05-17T03:50:00.875Z,4.60
2023-05-17T03:52:30.658Z,4.70
2023-05-17T03:54:59.983Z,4.70
2023-05-17T03:57:29.386Z,4.80
2023-05-17T03:59:57.671Z,4.70
2023-05-17T04:02:26.214Z,4.80
2023-05-17T04:04:54.584Z,4.80
2023-05-17T04:07:24.553Z,4.80
2023-05-17T04:09:52.490Z,4.80
2023-05-17T04:12:20.498Z,4.90
2023-05-17T04:14:50.339Z,4.90
2023-05-17T04:17:18.649Z,4.90
2023-05-17T04:19:48.078Z,5.00
2023-05-17T04:22:16.089Z,5.10
2023-05-17T04:24:44.104Z,5.20
2023-05-17T04:27:12.004Z,5.30
2023-05-17T04:29:40.891Z,5.30
2023-05-17T04:32:11.040Z,5.40
2023-05-17T04:34:39.745Z,5.40
2023-05-17T04:37:07.814Z,5.50
2023-05-17T04:39:37.441Z,5.60
2023-05-17T04:42:05.794Z,5.60
2023-05-17T04:44:37.093Z,5.60
2023-05-17T04:47:05.457Z,5.60
2023-05-17T04:49:34.670Z,5.60
2023-05-17T04:52:05.985Z,5.60
2023-05-17T04:54:35.611Z,5.60
2023-05-17T04:57:03.775Z,5.70
2023-05-17T04:59:51.327Z,5.80
2023-05-17T05:02:19.274Z,6.00
2023-05-17T05:04:48.774Z,6.00
2023-05-17T05:07:17.791Z,6.10
2023-05-17T05:09:47.666Z,6.20
2023-05-17T05:12:17.052Z,6.30
2023-05-17T05:14:45.222Z,6.40
2023-05-17T05:17:14.171Z,6.60
2023-05-17T05:19:43.352Z,6.70
2023-05-17T05:22:12.799Z,6.90
2023-05-17T05:24:44.059Z,7.00
2023-05-17T05:27:11.852Z,7.10
2023-05-17T05:29:42.546Z,7.10
2023-05-17T05:32:10.871Z,7.30
2023-05-17T05:34:44.534Z,7.40
2023-05-17T05:37:13.811Z,7.50
2023-05-17T05:39:41.956Z,7.70
2023-05-17T05:42:10.248Z,7.90
2023-05-17T05:44:38.361Z,8.10
2023-05-17T05:47:06.980Z,8.30
2023-05-17T05:49:34.856Z,8.50
2023-05-17T05:52:02.724Z,8.70
2023-05-17T05:54:33.288Z,8.90
2023-05-17T05:57:01.179Z,9.10
2023-05-17T05:59:29.080Z,9.20
2023-05-17T06:01:58.686Z,9.50
2023-05-17T06:04:36.366Z,9.70
2023-05-17T06:07:12.237Z,9.90
2023-05-17T06:09:41.538Z,10.10
2023-05-17T06:12:09.584Z,10.20
2023-05-17T06:14:38.544Z,10.30
2023-05-17T06:17:06.664Z,10.30
2023-05-17T06:19:34.663Z,10.30
2023-05-17T06:22:02.706Z,10.30
2023-05-17T06:24:30.619Z,10.40
2023-05-17T06:27:00.048Z,10.40
2023-05-17T06:29:27.956Z,10.50
2023-05-17T06:31:56.904Z,10.50
2023-05-17T06:34:24.747Z,10.60
2023-05-17T06:36:52.688Z,10.70
2023-05-17T06:39:20.514Z,10.70
2023-05-17T06:41:48.411Z,10.80
2023-05-17T06:44:19.778Z,10.80
2023-05-17T06:46:47.689Z,10.90
2023-05-17T06:49:15.582Z,10.90
2023-05-17T06:51:43.472Z,10.90
2023-05-17T06:54:11.441Z,10.90
2023-05-17T06:56:39.298Z,11.00
2023-05-17T06:59:07.145Z,11.10
2023-05-17T07:01:36.491Z,11.10
2023-05-17T07:04:04.877Z,11.10
2023-05-17T07:06:32.726Z,11.10
2023-05-17T07:09:00.498Z,11.10
2023-05-17T07:11:28.335Z,11.10
2023-05-17T07:13:56.183Z,11.20
2023-05-17T07:16:24.001Z,11.20
2023-05-17T07:18:53.327Z,11.10
2023-05-17T07:21:21.262Z,11.20
2023-05-17T07:23:49.067Z,11.20
2023-05-17T07:26:16.915Z,11.10
2023-05-17T07:28:44.729Z,11.10
2023-05-17T07:31:12.783Z,11.20
2023-05-17T07:33:40.746Z,11.30
2023-05-17T07:36:10.519Z,11.40
2023-05-17T07:38:38.358Z,11.60
2023-05-17T07:41:09.505Z,11.60
2023-05-17T07:43:38.179Z,11.70
2023-05-17T07:46:06.371Z,11.90
2023-05-17T07:48:34.398Z,11.90
2023-05-17T07:51:02.295Z,11.90
2023-05-17T07:53:31.472Z,12.00
2023-05-17T07:55:59.343Z,11.90
2023-05-17T07:58:27.272Z,11.80
2023-05-17T08:00:55.095Z,11.70
2023-05-17T08:03:22.969Z,11.70
2023-05-17T08:05:50.829Z,11.60
2023-05-17T08:08:18.687Z,11.50
2023-05-17T08:10:48.077Z,11.50
2023-05-17T08:13:15.989Z,11.50
2023-05-17T08:15:43.822Z,11.40
2023-05-17T08:18:11.980Z,11.40
2023-05-17T08:20:39.784Z,11.50
2023-05-17T08:23:10.295Z,11.60
2023-05-17T08:25:38.118Z,11.60
2023-05-17T08:28:07.302Z,11.70
2023-05-17T08:30:35.326Z,11.70
2023-05-17T08:33:03.278Z,11.80
2023-05-17T08:35:31.451Z,11.80
2023-05-17T08:37:59.606Z,11.90
2023-05-17T08:40:29.225Z,12.00
2023-05-17T08:42:57.857Z,12.10
2023-05-17T08:45:29.312Z,12.20
2023-05-17T08:47:58.745Z,12.40
2023-05-17T08:50:30.365Z,12.60
2023-05-17T08:52:59.925Z,12.70
2023-05-17T08:55:30.031Z,12.80
2023-05-17T08:57:58.137Z,12.90
2023-05-17T09:00:28.975Z,13.00
2023-05-17T09:02:57.033Z,13.00
2023-05-17T09:05:25.564Z,13.00
2023-05-17T09:07:53.913Z,13.20
2023-05-17T09:10:22.139Z,13.30
2023-05-17T09:12:50.709Z,13.40
2023-05-17T09:15:20.344Z,13.30
2023-05-17T09:17:54.612Z,13.20
2023-05-17T09:20:30.110Z,13.30
2023-05-17T09:22:58.769Z,13.30
2023-05-17T09:25:26.699Z,13.30
2023-05-17T09:27:55.027Z,13.30
2023-05-17T09:30:29.360Z,13.40
2023-05-17T09:32:59.429Z,13.40
2023-05-17T09:35:31.554Z,13.50
2023-05-17T09:38:09.307Z,13.60
2023-05-17T09:40:40.713Z,13.80
2023-05-17T09:43:09.230Z,14.00
2023-05-17T09:45:37.468Z,14.10
2023-05-17T09:48:14.692Z,14.30
2023-05-17T09:50:47.161Z,14.50
2023-05-17T09:53:27.703Z,14.60
2023-05-17T09:55:57.138Z,14.70
2023-05-17T09:58:26.010Z,14.80
2023-05-17T10:00:55.214Z,14.90
2023-05-17T10:03:24.430Z,15.10
2023-05-17T10:05:54.357Z,15.20
2023-05-17T10:08:25.954Z,15.10
2023-05-17T10:10:56.195Z,15.10
2023-05-17T10:13:27.058Z,15.30
2023-05-17T10:15:56.111Z,15.30
2023-05-17T10:18:26.228Z,15.40
2023-05-17T10:20:54.118Z,15.50
2023-05-17T10:23:22.892Z,15.50
2023-05-17T10:25:51.724Z,15.50
2023-05-17T10:28:21.118Z,15.60
2023-05-17T10:30:49.893Z,15.60
2023-05-17T10:33:19.730Z,15.90
2023-05-17T10:35:52.132Z,16.10
2023-05-17T10:38:23.909Z,16.10
2023-05-17T10:40:54.831Z,16.10
2023-05-17T10:43:23.860Z,16.10
2023-05-17T10:45:52.362Z,16.20
2023-05-17T10:48:20.422Z,16.30
2023-05-17T10:51:00.978Z,16.30
2023-05-17T10:53:29.493Z,16.30
2023-05-17T10:55:58.524Z,16.40
2023-05-17T10:58:29.710Z,16.40
2023-05-17T11:00:57.491Z,16.60
2023-05-17T11:03:29.783Z,16.70
2023-05-17T11:06:23.431Z,16.70
2023-05-17T11:09:14.671Z,16.70
2023-05-17T11:12:04.714Z,16.40
2023-05-17T11:14:45.326Z,16.40
2023-05-17T11:17:17.860Z,16.30
2023-05-17T11:20:03.404Z,16.20
2023-05-17T11:22:39.184Z,16.00
2023-05-17T11:25:09.373Z,15.80
2023-05-17T11:27:38.790Z,15.70
2023-05-17T11:30:16.762Z,15.40
2023-05-17T11:32:48.633Z,15.40
2023-05-17T11:35:18.403Z,15.50
2023-05-17T11:37:49.297Z,15.60
2023-05-17T11:40:26.185Z,15.70
2023-05-17T11:43:12.924Z,15.80
2023-05-17T11:45:46.632Z,16.00
2023-05-17T11:48:15.251Z,16.10
2023-05-17T11:50:44.973Z,16.20
2023-05-17T11:53:15.191Z,16.50
2023-05-17T11:55:47.284Z,16.80
2023-05-17T11:58:17.036Z,16.90
2023-05-17T12:00:45.494Z,16.90
2023-05-17T12:03:21.157Z,16.80
2023-05-17T12:05:50.768Z,16.60
2023-05-17T12:08:21.164Z,16.40
2023-05-17T12:10:52.894Z,16.20
2023-05-17T12:13:21.811Z,16.30
2023-05-17T12:15:53.425Z,16.40
2023-05-17T12:18:21.345Z,16.60
2023-05-17T12:20:56.568Z,16.60
2023-05-17T12:23:30.476Z,16.70
2023-05-17T12:26:09.530Z,16.80
2023-05-17T12:28:38.916Z,17.00
2023-05-17T12:31:10.595Z,17.00
2023-05-17T12:33:41.279Z,16.60
2023-05-17T12:36:10.527Z,16.40
2023-05-17T12:38:41.754Z,16.40
2023-05-17T12:41:11.670Z,16.30
2023-05-17T12:43:41.065Z,16.40
2023-05-17T12:46:11.377Z,16.60
2023-05-17T12:48:41.088Z,16.40
2023-05-17T12:51:11.943Z,16.40
2023-05-17T12:53:43.044Z,16.50
2023-05-17T12:56:17.123Z,16.60
2023-05-17T12:58:45.826Z,16.60
2023-05-17T13:01:14.721Z,16.70
2023-05-17T13:03:43.070Z,17.00
2023-05-17T13:06:11.252Z,17.30
2023-05-17T13:08:39.119Z,17.60
2023-05-17T13:11:10.032Z,18.00
2023-05-17T13:13:38.300Z,18.20
2023-05-17T13:16:06.920Z,18.30
2023-05-17T13:18:51.815Z,18.20
2023-05-17T13:21:20.734Z,17.90
2023-05-17T13:23:50.105Z,17.80
2023-05-17T13:26:19.684Z,17.60
2023-05-17T13:28:47.557Z,17.50
2023-05-17T13:31:15.503Z,17.40
2023-05-17T13:33:45.224Z,17.40
2023-05-17T13:36:13.284Z,17.30
2023-05-17T13:38:41.417Z,17.30
2023-05-17T13:41:09.425Z,17.20
2023-05-17T13:43:38.622Z,17.30
2023-05-17T13:46:06.578Z,17.50
2023-05-17T13:48:34.642Z,17.60
2023-05-17T13:51:02.623Z,17.70
2023-05-17T13:53:30.513Z,17.60
2023-05-17T13:55:58.343Z,17.50
2023-05-17T13:58:26.717Z,17.40
2023-05-17T14:00:56.405Z,17.20
2023-05-17T14:03:24.255Z,17.00
2023-05-17T14:05:53.436Z,16.90
2023-05-17T14:08:21.630Z,16.90
2023-05-17T14:10:49.690Z,17.10
2023-05-17T14:13:17.592Z,17.40
2023-05-17T14:15:45.547Z,17.10
2023-05-17T14:18:14.851Z,16.90
2023-05-17T14:20:42.811Z,16.80
2023-05-17T14:23:10.767Z,16.70
2023-05-17T14:25:38.594Z,16.70
2023-05-17T14:28:06.380Z,16.90
2023-05-17T14:30:34.266Z,17.10
2023-05-17T14:33:02.451Z,17.20
2023-05-17T14:35:31.892Z,17.30
2023-05-17T14:37:59.700Z,17.40
2023-05-17T14:40:27.624Z,17.50
2023-05-17T14:42:56.575Z,17.70
2023-05-17T14:45:24.571Z,17.60
2023-05-17T14:47:52.819Z,17.60
2023-05-17T14:50:21.009Z,17.40
2023-05-17T14:52:50.342Z,17.30
2023-05-17T14:55:18.715Z,17.20
2023-05-17T14:57:46.655Z,17.20
2023-05-17T15:00:15.643Z,17.40
2023-05-17T15:02:44.018Z,17.50
2023-05-17T15:05:12.499Z,17.50
2023-05-17T15:07:40.427Z,17.50
2023-05-17T15:10:12.917Z,17.50
2023-05-17T15:12:40.990Z,17.70
2023-05-17T15:15:09.980Z,17.70
2023-05-17T15:17:37.940Z,17.70
2023-05-17T15:20:07.540Z,17.80
2023-05-17T15:22:35.593Z,17.90
2023-05-17T15:25:03.510Z,18.10
2023-05-17T15:27:32.708Z,18.00
2023-05-17T15:30:00.722Z,18.00
2023-05-17T15:32:28.600Z,18.20
2023-05-17T15:34:56.499Z,18.40
2023-05-17T15:37:24.391Z,18.70
2023-05-17T15:39:52.705Z,19.00
2023-05-17T15:42:20.721Z,19.20
2023-05-17T15:44:49.913Z,19.40
2023-05-17T15:47:17.834Z,19.60
2023-05-17T15:49:47.600Z,20.30
2023-05-17T15:52:15.816Z,21.10
2023-05-17T15:54:43.682Z,22.10
2023-05-17T15:57:11.592Z,23.10
2023-05-17T15:59:39.765Z,24.70
2023-05-17T16:02:09.969Z,26.70
2023-05-17T16:04:38.265Z,28.70
2023-05-17T16:07:06.206Z,30.10
2023-05-17T16:09:34.061Z,30.20
2023-05-17T16:12:01.878Z,29.00
2023-05-17T16:14:29.725Z,28.50
2023-05-17T16:16:57.582Z,29.10
2023-05-17T16:19:27.575Z,31.10
2023-05-17T16:21:55.586Z,32.60
2023-05-17T16:24:23.515Z,33.30
2023-05-17T16:26:52.577Z,33.70
2023-05-17T16:29:20.456Z,34.30
2023-05-17T16:31:49.418Z,35.00
2023-05-17T16:34:17.813Z,35.60
2023-05-17T16:36:47.833Z,35.80
2023-05-17T16:39:15.658Z,36.00
2023-05-17T16:41:43.524Z,36.40
2023-05-17T16:44:11.402Z,36.50
2023-05-17T16:46:39.360Z,36.20
2023-05-17T16:49:07.844Z,33.90
2023-05-17T16:51:35.907Z,31.10
2023-05-17T16:54:05.208Z,28.80
2023-05-17T16:56:33.705Z,27.00
2023-05-17T16:59:01.509Z,25.60
2023-05-17T17:01:29.659Z,24.60
2023-05-17T17:03:57.597Z,23.90
2023-05-17T17:06:25.500Z,23.40
2023-05-17T17:08:53.987Z,22.70
2023-05-17T17:11:23.156Z,21.80
2023-05-17T17:13:51.207Z,21.40
2023-05-17T17:16:20.424Z,21.00
2023-05-17T17:18:49.606Z,20.70
2023-05-17T17:21:18.406Z,20.30
2023-05-17T17:23:46.714Z,20.10
2023-05-17T17:26:15.363Z,20.20
2023-05-17T17:28:44.652Z,20.00
2023-05-17T17:31:12.516Z,19.60
2023-05-17T17:33:40.649Z,19.50
2023-05-17T17:36:11.258Z,19.60
2023-05-17T17:38:39.188Z,20.70
2023-05-17T17:41:07.290Z,22.60
2023-05-17T17:43:35.112Z,24.50
2023-05-17T17:46:04.434Z,26.10
2023-05-17T17:48:32.273Z,26.70
2023-05-17T17:51:00.206Z,26.60
2023-05-17T17:53:28.752Z,26.70
2023-05-17T17:55:56.611Z,27.00
2023-05-17T17:58:24.456Z,27.20
2023-05-17T18:00:53.685Z,26.80
2023-05-17T18:03:22.906Z,26.00
2023-05-17T18:05:50.848Z,25.00
2023-05-17T18:08:18.764Z,23.80
2023-05-17T18:10:46.654Z,22.50
2023-05-17T18:13:14.472Z,21.20
2023-05-17T18:15:42.446Z,20.30
2023-05-17T18:18:10.642Z,19.70
2023-05-17T18:20:40.080Z,19.10
2023-05-17T18:23:08.188Z,18.50
2023-05-17T18:25:36.771Z,18.00
2023-05-17T18:28:06.298Z,17.40
2023-05-17T18:30:35.438Z,17.00
2023-05-17T18:33:03.340Z,16.60
2023-05-17T18:35:31.219Z,16.20
2023-05-17T18:38:00.717Z,15.90
2023-05-17T18:40:28.965Z,15.60
2023-05-17T18:42:57.025Z,15.30
2023-05-17T18:45:24.910Z,15.00
2023-05-17T18:47:52.851Z,14.80
2023-05-17T18:50:23.706Z,14.60
2023-05-17T18:52:51.551Z,14.40
2023-05-17T18:55:20.873Z,14.20
2023-05-17T18:57:48.757Z,14.00
2023-05-17T19:00:17.041Z,13.80
2023-05-17T19:02:45.230Z,13.60
2023-05-17T19:05:13.201Z,13.50
2023-05-17T19:07:43.355Z,13.30
2023-05-17T19:10:12.054Z,13.20
2023-05-17T19:12:42.153Z,13.00
2023-05-17T19:15:11.442Z,12.90
2023-05-17T19:17:39.499Z,12.70
2023-05-17T19:20:08.965Z,12.60
2023-05-17T19:22:36.915Z,12.50
2023-05-17T19:25:05.443Z,12.30
2023-05-17T19:27:33.321Z,12.20
2023-05-17T19:30:02.541Z,12.00
2023-05-17T19:32:32.954Z,11.80
2023-05-17T19:35:01.412Z,11.70
2023-05-17T19:37:29.454Z,11.50
2023-05-17T19:39:58.773Z,11.30
2023-05-17T19:42:26.646Z,11.20
2023-05-17T19:44:54.578Z,11.10
2023-05-17T19:47:23.957Z,11.00
2023-05-17T19:49:51.859Z,10.90
2023-05-17T19:52:19.657Z,10.80
2023-05-17T19:54:47.546Z,10.70
2023-05-17T19:57:15.439Z,10.60
2023-05-17T19:59:43.847Z,10.50
2023-05-17T20:02:12.143Z,10.40
2023-05-17T20:04:41.463Z,10.30
2023-05-17T20:07:09.441Z,10.20
2023-05-17T20:09:38.307Z,10.20
2023-05-17T20:12:07.207Z,10.10
2023-05-17T20:14:35.057Z,9.90
2023-05-17T20:17:03.033Z,9.90
2023-05-17T20:19:30.926Z,9.90
2023-05-17T20:22:01.674Z,9.80
2023-05-17T20:24:29.897Z,9.70
2023-05-17T20:26:58.208Z,9.70
2023-05-17T20:29:26.145Z,9.70
2023-05-17T20:31:54.033Z,9.60
2023-05-17T20:34:22.024Z,9.50
2023-05-17T20:36:49.870Z,9.50
2023-05-17T20:39:20.831Z,9.50
2023-05-17T20:41:50.117Z,9.40
2023-05-17T20:44:18.755Z,9.40
2023-05-17T20:46:46.638Z,9.40
2023-05-17T20:49:14.556Z,9.40
2023-05-17T20:51:46.092Z,9.30
2023-05-17T20:54:13.985Z,9.20
2023-05-17T20:56:43.255Z,9.20
2023-05-17T20:59:11.378Z,9.20
2023-05-17T21:01:39.726Z,9.20
2023-05-17T21:04:07.613Z,9.20
2023-05-17T21:06:35.485Z,9.10
2023-05-17T21:09:03.828Z,9.20
2023-05-17T21:11:31.708Z,9.10
2023-05-17T21:14:00.927Z,9.10
2023-05-17T21:16:28.909Z,9.10
2023-05-17T21:18:56.778Z,9.10
2023-05-17T21:21:24.622Z,9.10
2023-05-17T21:23:52.453Z,9.10
2023-05-17T21:26:21.678Z,9.10
2023-05-17T21:28:49.513Z,9.10
2023-05-17T21:31:18.818Z,9.20
2023-05-17T21:33:46.725Z,9.20
2023-05-17T21:36:14.504Z,9.30
2023-05-17T21:38:42.340Z,9.40
2023-05-17T21:41:10.354Z,9.40
2023-05-17T21:43:38.225Z,9.50
2023-05-17T21:46:06.168Z,9.50
2023-05-17T21:48:35.350Z,9.50
2023-05-17T21:51:03.314Z,9.60
2023-05-17T21:53:31.149Z,9.60
2023-05-17T21:56:02.697Z,9.60
2023-05-17T21:58:31.943Z,9.60
2023-05-17T22:01:00.328Z,9.70
2023-05-17T22:03:28.374Z,9.60
2023-05-17T22:05:57.674Z,9.60
2023-05-17T22:08:25.524Z,9.60
2023-05-17T22:10:54.429Z,9.60
2023-05-17T22:13:26.318Z,9.60
2023-05-17T22:15:56.946Z,9.60
2023-05-17T22:18:26.899Z,9.60
2023-05-17T22:20:55.332Z,9.60
2023-05-17T22:23:24.529Z,9.60
2023-05-17T22:25:52.406Z,9.60
2023-05-17T22:28:20.393Z,9.60
2023-05-17T22:30:48.556Z,9.60
2023-05-17T22:33:16.399Z,9.60
2023-05-17T22:35:44.225Z,9.50
2023-05-17T22:38:12.049Z,9.50
2023-05-17T22:40:41.370Z,9.50
2023-05-17T22:43:10.700Z,9.50
2023-05-17T22:45:38.830Z,9.40
2023-05-17T22:48:07.270Z,9.40
2023-05-17T22:50:36.244Z,9.40
2023-05-17T22:53:05.871Z,9.40
2023-05-17T22:55:33.802Z,9.30
2023-05-17T22:58:03.038Z,9.30
2023-05-17T23:00:30.858Z,9.20
2023-05-17T23:02:58.789Z,9.20
2023-05-17T23:05:26.699Z,9.10
2023-05-17T23:07:54.555Z,9.10
2023-05-17T23:10:22.577Z,9.00
2023-05-17T23:12:52.252Z,9.00
2023-05-17T23:15:21.839Z,8.90
2023-05-17T23:17:49.726Z,8.90
2023-05-17T23:20:18.120Z,8.90
2023-05-17T23:22:47.629Z,8.80
2023-05-17T23:25:16.521Z,8.80
2023-05-17T23:27:44.728Z,8.80
2023-05-17T23:30:13.088Z,8.70
2023-05-17T23:32:42.352Z,8.70
2023-05-17T23:35:10.487Z,8.70
2023-05-17T23:37:38.285Z,8.60
2023-05-17T23:40:07.414Z,8.60
2023-05-17T23:42:35.590Z,8.50
2023-05-17T23:45:03.565Z,8.40
2023-05-17T23:47:33.510Z,8.40
2023-05-17T23:50:03.853Z,8.40
2023-05-17T23:52:32.587Z,8.30
2023-05-17T23:55:01.521Z,8.30
2023-05-17T23:57:29.761Z,8.30
2023-05-17T23:59:57.631Z,8.30
